Nearby METAR Reports

 

KCXP - Carson City, Nevada, USA
Distance from station: WSW 2mi, 3km
Updated: Mon, Mar-27-2017 3:35am PDT
Partly cloudy
Partly cloudy
 Wind from SE
Wind: SE 5 mph , 7 km/h
Temperature: 37°F , 3°C
Wind Chill: 33°F , 1°C
Dew Point: 32°F , 0°C
Humidity: 81%
Barometer: 29.98 inHg , 1015.2 hPa
Clouds: Partly cloudy
Visibility: 10 miles , 16 km
Cloud details: Few Clouds 2800 ft
Partly cloudy 4100 ft
2017/03/27 10:35 KCXP 271035Z AUTO 14004KT 10SM FEW028 SCT041 03/00 A2998 RMK AO2
KRNO - Reno, Nevada, USA
Distance from station: N 21mi, 34km
Updated: Mon, Mar-27-2017 2:55am PDT
Light rain, Mostly cloudy
Light rain, Mostly cloudy
 Wind from varies
Wind: varies 3 mph , 6 km/h
Temperature: 41°F , 5°C
Dew Point: 36°F , 2°C
Humidity: 81%
Barometer: 29.97 inHg , 1014.9 hPa
Summary: Light rain
Clouds: Mostly cloudy
Visibility: 10 miles , 16 km
Cloud details: Mostly cloudy 3200 ft
Mostly cloudy 6000 ft
2017/03/27 09:55 KRNO 270955Z VRB03KT 10SM -RA BKN032 BKN060 05/02 A2997 RMK AO2 RAB01 SLP132 P0002 T00500017
 
KTRK - Truckee Tahoe, California, USA
Distance from station: WNW 24mi, 38km
Updated: Mon, Mar-27-2017 3:15am PDT
Light rain, Overcast
Light rain, Overcast
 Wind from calm
Wind: Calm
Temperature: 32°F , 0°C
Dew Point: 32°F , 0°C
Humidity: 100%
Barometer: 29.99 inHg , 1015.6 hPa
Summary: Light rain
Clouds: Overcast
Visibility: 10 miles , 16 km
Cloud details: Partly cloudy 1400 ft
Mostly cloudy 2400 ft
Overcast 3400 ft
2017/03/27 10:15 KTRK 271015Z AUTO 00000KT 10SM -RA SCT014 BKN024 OVC034 00/00 A2999 RMK AO2
KTVL - South Lake Tahoe, California, USA
Distance from station: SW 26mi, 42km
Updated: Mon, Mar-27-2017 3:09am PDT
Mostly cloudy
Mostly cloudy
 Wind from S
Wind: S 13 mph , 20 km/h, Gust: 18 mph , 30 km/h
Temperature: 32°F , 0°C
Wind Chill: 22°F , -6°C
Dew Point: 27°F , -3°C
Humidity: 80%
Barometer: 29.98 inHg , 1015.2 hPa
Clouds: Mostly cloudy
Visibility: 10 miles , 16 km
Cloud details: Few Clouds 2100 ft
Partly cloudy 2500 ft
Mostly cloudy 9500 ft
2017/03/27 10:09 KTVL 271009Z AUTO 19011G16KT 10SM FEW021 SCT025 BKN095 00/M03 A2998 RMK AO2 SNE0958 P0000 T00001028
 
KRTS - Reno/Stead, Nevada, USA
Distance from station: NNW 34mi, 54km
Updated: Mon, Mar-27-2017 3:15am PDT
Clear
Clear
 Wind from NW
Wind: NW 9 mph , 15 km/h
Temperature: 34°F , 1°C
Wind Chill: 27°F , -3°C
Dew Point: 32°F , 0°C
Humidity: 93%
Barometer: 29.97 inHg , 1014.9 hPa
Clouds: Clear
Visibility: 10 miles , 16 km
2017/03/27 10:15 KRTS 271015Z AUTO 32008KT 10SM CLR 01/00 A2997 RMK AO2
KBLU - Emigrant Gap, California, USA
Distance from station: W 54mi, 87km
Updated: Mon, Mar-27-2017 3:29am PDT
Fog, Overcast
Fog, Overcast
 Wind from S
Wind: S 9 mph , 15 km/h
Temperature: 34°F , 1°C
Wind Chill: 27°F , -3°C
Dew Point: 34°F , 1°C
Humidity: 100%
Barometer: 30.03 inHg , 1016.9 hPa
Summary: Fog
Clouds: Overcast
Visibility: 1/4 mile , 2 km
Cloud details: Overcast 200 ft
2017/03/27 10:29 KBLU 271029Z AUTO 18008KT 1/4SM FG VV002 01/01 A3003 RMK AO2 T00110011 TSNO
 
KNFL - Fallon Nas, Nevada, USA
Distance from station: ENE 56mi, 89km
Updated: Mon, Mar-27-2017 2:56am PDT
Clear
Clear
 Wind from NW
Wind: NW 7 mph , 11 km/h
Temperature: 45°F , 7°C
Wind Chill: 41°F , 5°C
Dew Point: 34°F , 1°C
Humidity: 66%
Barometer: 29.95 inHg , 1014.2 hPa
Clouds: Clear
Visibility: 10 miles , 16 km
2017/03/27 09:56 KNFL 270956Z AUTO 32006KT 10SM CLR 07/01 A2995 RMK AO2 RAB0857E07 SLP115 P0000 T00720006
KBAN - Bridgeport(Mcmwt, California, USA
Distance from station: S 60mi, 96km
Updated: Mon, Mar-27-2017 3:04am PDT
Light Snow
Light Snow
 Wind from varies
Wind: varies 3 mph , 6 km/h
Temperature: 34°F , 1°C
Dew Point: 28°F , -2°C
Humidity: 81%
Barometer: 29.96 inHg , 1014.6 hPa
Summary: Light Snow
Visibility: 5 miles , 8 km
2017/03/27 10:04 KBAN 271004Z AUTO VRB03KT 5SM -SN 01/M02 A2996 RMK AO2 P0000 T00061022 $
 
KPVF - Placerville, California, USA
Distance from station: WSW 66mi, 105km
Updated: Mon, Mar-27-2017 3:35am PDT
Overcast
Overcast
 Wind from SSE
Wind: SSE 9 mph , 15 km/h
Temperature: 43°F , 6°C
Wind Chill: 38°F , 3°C
Dew Point: 43°F , 6°C
Humidity: 100%
Barometer: 30.07 inHg , 1018.3 hPa
Clouds: Overcast
Visibility: 4 miles , 6 km
Cloud details: Mostly cloudy 400 ft
Overcast 800 ft
2017/03/27 10:35 KPVF 271035Z AUTO 16008KT 4SM BKN004 OVC008 06/06 A3007 RMK AO1
KGOO - Grass Valley, California, USA
Distance from station: W 70mi, 112km
Updated: Mon, Mar-27-2017 3:15am PDT
Overcast
Overcast
 Wind from S
Wind: S 3 mph , 6 km/h
Temperature: 41°F , 5°C
Dew Point: 41°F , 5°C
Humidity: 100%
Barometer: 30.05 inHg , 1017.6 hPa
Clouds: Overcast
Visibility: less than 1/4 mile , 2 km
Cloud details: Overcast 100 ft
2017/03/27 10:15 KGOO 271015Z AUTO 17003KT M1/4SM OVC001 05/05 A3005 RMK AO1
 
KAUN - Auburn Muni, California, USA
Distance from station: WSW 76mi, 123km
Updated: Mon, Mar-27-2017 3:35am PDT
Overcast
Overcast
 Wind from S
Wind: S 6 mph , 9 km/h
Temperature: 48°F , 9°C
Wind Chill: 45°F , 7°C
Dew Point: 48°F , 9°C
Humidity: 100%
Barometer: 30.08 inHg , 1018.6 hPa
Clouds: Overcast
Visibility: 10 miles , 16 km
Cloud details: Overcast 400 ft
2017/03/27 10:35 KAUN 271035Z AUTO 18005KT 10SM OVC004 09/09 A3008 RMK AO1
KLOL - Lovelock, Nevada, USA
Distance from station: NE 85mi, 137km
Updated: Mon, Mar-27-2017 2:53am PDT
Rain, Overcast
Rain, Overcast
 Wind from W
Wind: W 9 mph , 15 km/h
Temperature: 43°F , 6°C
Wind Chill: 38°F , 3°C
Dew Point: 37°F , 3°C
Humidity: 81%
Barometer: 29.96 inHg , 1014.6 hPa
Summary: Rain
Clouds: Overcast
Visibility: 7 miles , 11 km
Cloud details: Overcast 3200 ft
2017/03/27 09:53 KLOL 270953Z AUTO 26008KT 7SM RA OVC032 06/03 A2996 RMK AO2 PK WND 27028/0916 RAB15 SLP137 P0002 T00560033
 
KLHM - Lincoln, California, USA
Distance from station: WSW 91mi, 146km
Updated: Mon, Mar-27-2017 3:15am PDT
Partly cloudy
Partly cloudy
 Wind from SSE
Wind: SSE 8 mph , 13 km/h
Temperature: 48°F , 9°C
Wind Chill: 44°F , 7°C
Dew Point: 46°F , 8°C
Humidity: 94%
Barometer: 30.07 inHg , 1018.3 hPa
Clouds: Partly cloudy
Visibility: 10 miles , 16 km
Cloud details: Partly cloudy 5500 ft
2017/03/27 10:15 KLHM 271015Z AUTO 16007KT 10SM SCT055 09/08 A3007 RMK AO1
KBAB - Beale Afb/Marysv, California, USA
Distance from station: W 92mi, 148km
Updated: Mon, Mar-27-2017 2:58am PDT
Mostly cloudy
Mostly cloudy
 Wind from SE
Wind: SE 9 mph , 15 km/h
Temperature: 52°F , 11°C
Dew Point: 48°F , 9°C
Humidity: 88%
Barometer: 30.05 inHg , 1017.6 hPa
Clouds: Mostly cloudy
Visibility: 10 miles , 16 km
Cloud details: Partly cloudy 2000 ft
Mostly cloudy 4700 ft
2017/03/27 09:58 KBAB 270958Z AUTO 14008KT 10SM SCT020 BKN047 11/09 A3005 RMK AO2 SLP179 T01050094 $
 
KMHR - Mather Field, California, USA
Distance from station: WSW 97mi, 156km
Updated: Sun, Mar-26-2017 6:57pm PDT
NOT Current
Overcast
Overcast
 Wind from E
Wind: E 5 mph , 7 km/h
Temperature: 55°F , 13°C
Dew Point: 52°F , 11°C
Humidity: 88%
Barometer: 30.03 inHg , 1016.9 hPa
Clouds: Overcast
Visibility: 10 miles , 16 km
Cloud details: Overcast 4800 ft
2017/03/27 01:57 KMHR 270157Z 10004KT 10SM OVC048 13/11 A3003
KMCC - Mcclellan Afb, California, USA
Distance from station: WSW 99mi, 159km
Updated: Mon, Mar-27-2017 3:15am PDT
Clear
Clear
 Wind from S
Wind: S 5 mph , 7 km/h
Temperature: 48°F , 9°C
Wind Chill: 46°F , 8°C
Dew Point: 48°F , 9°C
Humidity: 100%
Barometer: 30.10 inHg , 1019.3 hPa
Clouds: Clear
Visibility: 10 miles , 16 km
2017/03/27 10:15 KMCC 271015Z AUTO 19004KT 10SM CLR 09/09 A3010 RMK AO2
 
KMYV - Marysville, California, USA
Distance from station: W 100mi, 161km
Updated: Mon, Mar-27-2017 2:53am PDT
Clear
Clear
 Wind from SE
Wind: SE 5 mph , 7 km/h
Temperature: 50°F , 10°C
Wind Chill: 48°F , 9°C
Dew Point: 48°F , 9°C
Humidity: 94%
Barometer: 30.07 inHg , 1018.3 hPa
Clouds: Clear
Visibility: 10 miles , 16 km
2017/03/27 09:53 KMYV 270953Z AUTO 14004KT 10SM CLR 10/09 A3007 RMK AO2 SLP186 T01000094